Huvudsida
METAR-TAF:

METAR-TAF

Flygplatser :

Wonderboom Airport

Pretoria, Sydafrika

latitud: 25-39S, longitud: 028-13E, höjd: 1248 m

Aktuellt väderrapport

Denna rapport gjordes för 1 timme och 4 minuter sedan, klockan 10:00 UTC
Vind 4 kt från nord/nordväst
Temperatur 24°C
Fuktighet 15%
Tryck 1022 hPa

METAR: FAWB 191000Z AUTO 33004KT //// // ////// 24/M04 Q1022

Tid: 13:04 (11:04 UTC)

Väderprognos

Denna rapport gjordes för 1 timme och 54 minuter sedan, klockan 09:10 UTC
Prognos gäller från 19 kl. 10 UTC till 19 kl. 18 UTC
Vind 10 kt från nordväst
Sikt 10 km eller mer
Inga moln under 1 500 m eller inga cumulonimbus
Blir
från 19 kl. 15 UTC till 19 kl. 17 UTC
Vind 3 kt varierande vindriktning

TAF: FAWB 190910Z 1910/1918 32010KT CAVOK TX26/1912Z TN12/1918Z BECMG 1915/1917 VRB03KT

Aktuella väderrapporter och prognoser från 4000 flygplatser (METAR- och TAF-rapporter).

De tillgängliga stationerna syns som gula och röda prickar på kartan.

För musen över prickarna för att se namnen på stationerna.

Klicka sedan för att få väderrapporter och prognoser.

För att ändra kartan: Klicka på de gröna knapparna med ett svart kors på för att zooma in; den gröna knappen med ett streck på för att zooma ut; eller på de gröna pilarna för angränsande kartor.


METAR-TAF: